LQMO

Mostar International Airport

Airport
ICAO code
LQMO
IATA Code
OMO
Summary
ICAO Region
EUR
ICAO Territory
Location

Ortijes, Bosnia and Hertzegovina

Serving
Mostar
Elevation
156 ft
Coordinates
43° 16' 55" N , 17° 50' 38" E
KCC
Metar
Observation
LQMO 281200Z 30005KT 220V340 CAVOK 13/M03 Q1016
Station
Mostar
Date/Time
2022-11-28 12:00:00
Wind direction
300°
Wind speed
05 kts
Lowest cloud amount
clouds and visibility OK
Temperature
13°C
Dew point
-3°C
Humidity
32%
QNH
1016 hPa
Weather condition
n/a

Mostar International Airport is an airport near Mostar, Bosnia and Herzegovina, situated in the village of Ortiješ, 4 NM southeast of Mostar.

Climatology

Humid subtropical climate (Köppen climate classification Cfa)

Runways

Designator Length Width Surface Rops
16/34 2400 48 ASP No/No

Airport map

Aerial View

SKYbrary Partners:

Safety knowledge contributed by: